Time;durP1;ratioP1;P1;durP2;ratioP2;P2;SDS_P1;SDS_P2;PMS_P1;PMS_P2;Temp;Humidity;BMP_temperature;BMP_pressure;BME280_temperature;BME280_humidity;BME280_pressure;Samples;Min_cycle;Max_cycle;Signal;HPM_P1;HPM_P2
2022/04/23 00:01:33;;;;;;;26.92;11.40;;;10.60;99.90;;;;;;5093480;28;20481;-73
2022/04/23 00:03:58;;;;;;;29.02;11.02;;;10.50;99.90;;;;;;5092081;28;20032;-72
2022/04/23 00:06:24;;;;;;;32.33;11.93;;;10.60;99.90;;;;;;5093340;28;20024;-73
2022/04/23 00:08:50;;;;;;;33.40;11.48;;;10.60;99.90;;;;;;5093251;28;20024;-73
2022/04/23 00:11:16;;;;;;;25.20;11.60;;;10.50;99.90;;;;;;5090685;28;20021;-72
2022/04/23 00:13:42;;;;;;;29.67;11.25;;;10.50;99.90;;;;;;5093039;28;20036;-72
2022/04/23 00:16:07;;;;;;;30.38;13.35;;;10.50;99.90;;;;;;5091795;28;20020;-72
2022/04/23 00:18:34;;;;;;;38.42;12.32;;;10.50;99.90;;;;;;5093016;28;20051;-72
2022/04/23 00:20:59;;;;;;;35.38;11.93;;;10.50;99.90;;;;;;5093025;28;20062;-72
2022/04/23 00:23:27;;;;;;;23.52;12.18;;;10.50;99.90;;;;;;5093008;28;20066;-71
2022/04/23 00:25:54;;;;;;;31.25;12.02;;;10.50;99.90;;;;;;5092746;28;20029;-72
2022/04/23 00:28:20;;;;;;;27.83;11.23;;;10.50;99.90;;;;;;5092892;28;20388;-72
2022/04/23 00:30:46;;;;;;;30.08;12.38;;;10.50;99.90;;;;;;5092710;28;20020;-74
2022/04/23 00:33:12;;;;;;;31.38;13.38;;;10.50;99.90;;;;;;5092873;28;20042;-72
2022/04/23 00:35:38;;;;;;;34.15;12.32;;;10.40;99.90;;;;;;5092722;28;20473;-72
2022/04/23 00:42:58;;;;;;;28.80;11.90;;;10.50;99.90;;;;;;5066877;28;20446;-65
2022/04/23 00:45:25;;;;;;;27.65;11.80;;;10.50;99.90;;;;;;5071936;28;20024;-67
2022/04/23 00:47:51;;;;;;;34.35;11.73;;;10.50;99.90;;;;;;5071982;28;20014;-66
2022/04/23 00:50:21;;;;;;;28.25;12.05;;;10.50;99.90;;;;;;5071410;28;20112;-66
2022/04/23 00:52:53;;;;;;;25.92;11.05;;;10.50;99.90;;;;;;5051630;28;20055;-66
2022/04/23 00:55:19;;;;;;;;;;;10.60;99.90;;;;;;5052134;28;20032;-67
2022/04/23 00:57:46;;;;;;;28.63;11.85;;;10.60;99.90;;;;;;5051968;28;20311;-67
2022/04/23 01:00:12;;;;;;;32.17;11.80;;;10.60;99.90;;;;;;5062134;28;20032;-67
2022/04/23 01:02:39;;;;;;;27.60;12.48;;;10.60;99.90;;;;;;5069180;28;20107;-67
2022/04/23 01:05:09;;;;;;;60.67;15.70;;;10.60;99.90;;;;;;5068456;28;20039;-65
2022/04/23 01:07:38;;;;;;;35.15;12.82;;;10.60;99.90;;;;;;5070099;28;20028;-65
2022/04/23 01:10:06;;;;;;;30.63;12.40;;;10.60;99.90;;;;;;5071227;28;20111;-65
2022/04/23 01:12:35;;;;;;;30.25;12.80;;;10.60;99.90;;;;;;5071356;28;20098;-65
2022/04/23 01:15:04;;;;;;;34.08;12.93;;;10.60;99.90;;;;;;5071396;28;20052;-66
2022/04/23 01:17:30;;;;;;;34.35;13.13;;;10.70;99.90;;;;;;5071353;28;20035;-66
2022/04/23 01:19:56;;;;;;;27.35;11.93;;;10.70;99.90;;;;;;5071194;28;20063;-66
2022/04/23 01:22:26;;;;;;;33.42;12.20;;;10.60;99.90;;;;;;5060410;28;20052;-66
2022/04/23 01:24:54;;;;;;;33.33;11.95;;;10.60;99.90;;;;;;5071064;28;20025;-66
2022/04/23 01:27:23;;;;;;;33.28;12.85;;;10.70;99.90;;;;;;5070933;28;20032;-66
2022/04/23 01:29:48;;;;;;;33.08;12.10;;;10.70;99.90;;;;;;5071171;28;20461;-66
2022/04/23 01:32:14;;;;;;;33.05;12.93;;;10.70;99.90;;;;;;5036807;28;20067;-65
2022/04/23 01:34:39;;;;;;;31.45;12.05;;;10.70;99.90;;;;;;5071224;28;20492;-65
2022/04/23 01:37:05;;;;;;;23.42;12.15;;;10.70;99.90;;;;;;5070993;28;20400;-65
2022/04/23 01:39:31;;;;;;;30.77;12.20;;;10.70;99.90;;;;;;5070348;28;20431;-65
2022/04/23 01:41:57;;;;;;;33.45;13.48;;;10.70;99.90;;;;;;5070475;28;20044;-65
2022/04/23 01:44:22;;;;;;;32.47;13.07;;;10.70;99.90;;;;;;5071225;28;20031;-66
2022/04/23 01:46:48;;;;;;;30.73;12.00;;;10.70;99.90;;;;;;5068510;28;20115;-66
2022/04/23 01:49:13;;;;;;;27.92;12.40;;;10.70;99.90;;;;;;5069320;28;20020;-66
2022/04/23 01:51:39;;;;;;;33.75;13.30;;;10.70;99.90;;;;;;5089687;28;20052;-66
2022/04/23 01:54:05;;;;;;;28.95;12.57;;;10.70;99.90;;;;;;5089856;28;20498;-66
2022/04/23 01:56:31;;;;;;;28.40;12.60;;;10.70;99.90;;;;;;5070548;28;20027;-66
2022/04/23 01:58:56;;;;;;;30.50;14.60;;;10.70;99.90;;;;;;5070597;28;20028;-66
2022/04/23 02:01:22;;;;;;;32.55;13.38;;;10.70;99.90;;;;;;5090506;28;20468;-67
2022/04/23 02:03:51;;;;;;;31.13;13.00;;;10.70;99.90;;;;;;5090969;28;20391;-66
2022/04/23 02:06:17;;;;;;;43.80;13.80;;;10.70;99.90;;;;;;5090829;28;20405;-66
2022/04/23 02:08:43;;;;;;;26.00;13.15;;;10.70;99.90;;;;;;5080780;28;20078;-66
2022/04/23 02:11:09;;;;;;;35.78;13.02;;;10.70;99.90;;;;;;5085261;28;20024;-66
2022/04/23 02:13:35;;;;;;;31.77;13.50;;;10.60;99.90;;;;;;5070333;28;20314;-66
2022/04/23 02:16:05;;;;;;;35.78;13.93;;;10.70;99.90;;;;;;5070342;28;20475;-65
2022/04/23 02:18:32;;;;;;;35.95;15.05;;;10.70;99.90;;;;;;5070318;28;20067;-66
2022/04/23 02:20:58;;;;;;;34.60;14.02;;;10.70;99.90;;;;;;5086791;28;20028;-64
2022/04/23 02:23:24;;;;;;;34.95;14.20;;;10.70;99.90;;;;;;5090595;28;20020;-67
2022/04/23 02:25:50;;;;;;;30.75;13.65;;;10.70;99.90;;;;;;5090521;28;20024;-66
2022/04/23 02:28:16;;;;;;;30.00;13.32;;;10.70;99.90;;;;;;5089109;28;20491;-65
2022/04/23 02:30:41;;;;;;;26.75;13.43;;;10.70;99.90;;;;;;5084143;28;20028;-66
2022/04/23 02:33:07;;;;;;;31.90;12.73;;;10.70;99.90;;;;;;5090491;28;20034;-66
2022/04/23 02:35:34;;;;;;;33.92;14.23;;;10.70;99.90;;;;;;5087219;28;20020;-65
2022/04/23 02:38:03;;;;;;;36.90;14.63;;;10.70;99.90;;;;;;5050289;28;20020;-66
2022/04/23 02:40:29;;;;;;;31.77;13.68;;;10.80;99.90;;;;;;5073622;28;20027;-66
2022/04/23 02:42:56;;;;;;;40.95;14.55;;;10.70;99.90;;;;;;5053758;28;20400;-66
2022/04/23 02:45:23;;;;;;;34.97;13.20;;;10.70;99.90;;;;;;5052764;28;20025;-67
2022/04/23 02:47:53;;;;;;;42.88;15.68;;;10.70;99.90;;;;;;5070319;28;20200;-66
2022/04/23 02:50:39;;;;;;;31.67;14.23;;;10.70;99.90;;;;;;5080471;28;20028;-65
2022/04/23 02:53:07;;;;;;;35.05;14.95;;;10.80;99.90;;;;;;5090410;28;20505;-64
2022/04/23 02:55:34;;;;;;;32.97;13.98;;;10.70;99.90;;;;;;5090713;28;20495;-64
2022/04/23 02:58:05;;;;;;;37.53;14.80;;;10.70;99.90;;;;;;5090474;28;20024;-65
2022/04/23 03:00:31;;;;;;;33.33;16.45;;;10.80;99.90;;;;;;5085621;28;20061;-65
2022/04/23 03:02:57;;;;;;;28.30;12.82;;;10.80;99.90;;;;;;5057029;28;20021;-65
2022/04/23 03:05:24;;;;;;;36.33;14.73;;;10.80;99.90;;;;;;5072282;28;20021;-65
2022/04/23 03:07:50;;;;;;;31.92;14.18;;;10.80;99.90;;;;;;5072087;28;20056;-66
2022/04/23 03:10:18;;;;;;;43.47;15.15;;;10.80;99.90;;;;;;5083476;28;20059;-65
2022/04/23 03:12:44;;;;;;;33.13;15.05;;;10.80;99.90;;;;;;5094115;28;20020;-66
2022/04/23 03:15:17;;;;;;;39.35;16.13;;;10.80;99.90;;;;;;5073635;28;20618;-64
2022/04/23 03:17:44;;;;;;;32.67;14.70;;;10.80;99.90;;;;;;5072754;28;20024;-66
2022/04/23 03:20:12;;;;;;;28.25;14.75;;;10.90;99.90;;;;;;5069766;28;20033;-66
2022/04/23 03:22:39;;;;;;;35.58;15.90;;;10.90;99.90;;;;;;5070133;28;20023;-66
2022/04/23 03:25:06;;;;;;;35.75;16.17;;;10.90;99.90;;;;;;5070164;28;20108;-66
2022/04/23 03:27:32;;;;;;;29.23;15.10;;;10.90;99.90;;;;;;5070022;28;20100;-65
2022/04/23 03:30:02;;;;;;;38.13;16.33;;;10.80;99.90;;;;;;5059983;28;20445;-65
2022/04/23 03:32:28;;;;;;;34.42;15.88;;;10.80;99.90;;;;;;5093536;28;20113;-65
2022/04/23 03:34:54;;;;;;;38.53;17.08;;;10.80;99.90;;;;;;5093441;28;20479;-65
2022/04/23 03:37:19;;;;;;;35.80;16.08;;;10.90;99.90;;;;;;5083152;28;20440;-65
2022/04/23 03:39:46;;;;;;;36.28;16.35;;;10.80;99.90;;;;;;5078345;28;20107;-65
2022/04/23 03:42:11;;;;;;;38.15;17.60;;;10.80;99.90;;;;;;5092955;28;20040;-64
2022/04/23 03:44:37;;;;;;;30.88;16.80;;;10.80;99.90;;;;;;5093347;28;20035;-65
2022/04/23 03:47:04;;;;;;;42.08;17.92;;;10.80;99.90;;;;;;5093458;28;20021;-65
2022/04/23 03:49:30;;;;;;;36.88;17.50;;;10.80;99.90;;;;;;5093459;28;20028;-66
2022/04/23 03:51:59;;;;;;;38.65;18.05;;;10.80;99.90;;;;;;5093420;28;20024;-65
2022/04/23 03:54:25;;;;;;;40.25;19.70;;;10.80;99.90;;;;;;5082013;28;20124;-66
2022/04/23 03:56:52;;;;;;;37.08;18.15;;;10.80;99.90;;;;;;5073068;28;20101;-66
2022/04/23 03:59:21;;;;;;;37.58;17.85;;;10.70;99.90;;;;;;5055969;28;20039;-65
2022/04/23 04:01:48;;;;;;;35.65;18.20;;;10.70;99.90;;;;;;5090108;28;20020;-66
2022/04/23 04:04:14;;;;;;;38.38;18.90;;;10.80;99.90;;;;;;5072773;28;20077;-66
2022/04/23 04:06:41;;;;;;;39.78;18.63;;;10.70;99.90;;;;;;5073097;28;20032;-66
2022/04/23 04:09:07;;;;;;;41.47;17.92;;;10.70;99.90;;;;;;5072873;28;20594;-66
2022/04/23 04:12:01;;;;;;;33.75;17.45;;;10.80;99.90;;;;;;5080524;28;20086;-66
2022/04/23 04:14:19;;;;;;;38.42;18.70;;;10.80;99.90;;;;;;5072474;28;20029;-65
2022/04/23 04:16:46;;;;;;;39.35;20.23;;;10.80;99.90;;;;;;5040036;28;20629;-65
2022/04/23 04:19:15;;;;;;;32.65;17.85;;;10.80;99.90;;;;;;5048355;28;20040;-66
2022/04/23 04:21:46;;;;;;;38.28;19.60;;;10.70;99.90;;;;;;5049764;28;20027;-66
2022/04/23 04:24:13;;;;;;;36.60;19.08;;;10.70;99.90;;;;;;5049596;28;20114;-66
2022/04/23 04:26:41;;;;;;;40.40;19.45;;;10.70;99.90;;;;;;5049611;28;20031;-66
2022/04/23 04:29:08;;;;;;;40.92;19.27;;;10.70;99.90;;;;;;5067325;28;20028;-65
2022/04/23 04:31:47;;;;;;;42.80;18.92;;;10.70;99.90;;;;;;5069215;28;20025;-66
2022/04/23 04:34:13;;;;;;;36.38;18.90;;;10.70;99.90;;;;;;5051754;28;20051;-66
2022/04/23 04:36:39;;;;;;;44.30;20.08;;;10.70;99.90;;;;;;5049152;28;20013;-66
2022/04/23 04:39:05;;;;;;;41.72;20.50;;;10.70;99.90;;;;;;5086237;28;20020;-66
2022/04/23 04:41:31;;;;;;;39.28;20.38;;;10.70;99.90;;;;;;5092340;28;20094;-66
2022/04/23 04:43:57;;;;;;;42.22;20.52;;;10.70;99.90;;;;;;5092529;28;20023;-65
2022/04/23 04:46:23;;;;;;;46.03;21.10;;;10.70;99.90;;;;;;5073591;28;20493;-64
2022/04/23 04:48:49;;;;;;;36.45;20.00;;;10.70;99.90;;;;;;5072376;28;20020;-66
2022/04/23 04:51:15;;;;;;;44.55;20.63;;;10.60;99.90;;;;;;5072366;28;20028;-65
2022/04/23 04:53:40;;;;;;;42.78;21.30;;;10.60;99.90;;;;;;5071908;28;20357;-66
2022/04/23 04:56:07;;;;;;;40.85;21.45;;;10.60;99.90;;;;;;5053980;28;20392;-64
2022/04/23 04:58:33;;;;;;;40.28;22.17;;;10.60;99.90;;;;;;5064624;28;20020;-64
2022/04/23 05:00:59;;;;;;;42.63;21.77;;;10.60;99.90;;;;;;5064348;28;20637;-65
2022/04/23 05:03:25;;;;;;;37.60;20.98;;;10.60;99.90;;;;;;5063222;28;20036;-66
2022/04/23 05:05:52;;;;;;;41.92;22.63;;;10.60;99.90;;;;;;5060149;28;20021;-64
2022/04/23 05:08:17;;;;;;;38.20;22.65;;;10.60;99.90;;;;;;5062708;28;20029;-65
2022/04/23 05:10:43;;;;;;;41.38;22.42;;;10.60;99.90;;;;;;5066461;28;20031;-65
2022/04/23 05:13:09;;;;;;;43.60;21.77;;;10.70;99.90;;;;;;5071751;28;20462;-66
2022/04/23 05:15:35;;;;;;;41.40;21.38;;;10.70;99.90;;;;;;5071670;28;20790;-66
2022/04/23 05:18:01;;;;;;;42.80;23.60;;;10.70;99.90;;;;;;5070405;28;20051;-65
2022/04/23 05:20:27;;;;;;;40.67;22.10;;;10.70;99.90;;;;;;5057773;28;20404;-67
2022/04/23 05:22:52;;;;;;;38.97;22.40;;;10.60;99.90;;;;;;5048154;28;20031;-65
2022/04/23 05:25:18;;;;;;;41.15;21.77;;;10.70;99.90;;;;;;5030301;28;20060;-66
2022/04/23 05:27:44;;;;;;;38.00;21.50;;;10.60;99.90;;;;;;5055733;28;20017;-67
2022/04/23 05:30:10;;;;;;;41.97;22.85;;;10.70;99.90;;;;;;5058482;28;20040;-65
2022/04/23 05:32:36;;;;;;;44.13;23.55;;;10.70;99.90;;;;;;5047709;28;20404;-65
2022/04/23 05:35:02;;;;;;;38.80;21.98;;;10.70;99.90;;;;;;5060187;28;20036;-65
2022/04/23 05:37:27;;;;;;;41.70;23.73;;;10.70;99.90;;;;;;5070221;28;20580;-65
2022/04/23 05:39:53;;;;;;;41.83;23.63;;;10.70;99.90;;;;;;5070729;28;20021;-66
2022/04/23 05:42:19;;;;;;;33.38;21.58;;;10.70;99.90;;;;;;5069987;28;20041;-66
2022/04/23 05:44:44;;;;;;;39.92;23.08;;;10.70;99.90;;;;;;5062743;28;20454;-66
2022/04/23 05:47:10;;;;;;;41.42;22.60;;;10.70;99.90;;;;;;5051035;28;20028;-66
2022/04/23 05:49:39;;;;;;;42.30;24.02;;;10.80;99.90;;;;;;5051793;28;20029;-66
2022/04/23 05:52:05;;;;;;;38.85;24.60;;;10.80;99.90;;;;;;5050806;28;20427;-66
2022/04/23 05:54:31;;;;;;;42.10;24.00;;;10.80;99.90;;;;;;5070188;28;20028;-66
2022/04/23 05:56:56;;;;;;;41.10;24.15;;;10.80;99.90;;;;;;5065080;28;20046;-66
2022/04/23 05:59:25;;;;;;;39.63;23.92;;;10.90;99.90;;;;;;5066343;28;20032;-65
2022/04/23 06:01:51;;;;;;;45.78;23.98;;;11.00;99.90;;;;;;5067089;28;20037;-65
2022/04/23 06:04:16;;;;;;;38.22;23.05;;;10.90;99.90;;;;;;5051909;28;20126;-66
2022/04/23 06:06:42;;;;;;;38.17;23.38;;;11.00;99.90;;;;;;5048803;28;20461;-66
2022/04/23 06:09:08;;;;;;;39.25;23.77;;;11.10;99.90;;;;;;5063731;28;20028;-66
2022/04/23 06:11:34;;;;;;;36.50;22.88;;;11.20;99.90;;;;;;5068781;28;20025;-66
2022/04/23 06:14:01;;;;;;;40.72;24.23;;;11.20;99.90;;;;;;5057293;28;20032;-65
2022/04/23 06:16:26;;;;;;;37.75;23.27;;;11.30;99.90;;;;;;5060397;28;20530;-66
2022/04/23 06:18:52;;;;;;;43.83;22.95;;;11.40;99.90;;;;;;5062629;28;20028;-66
2022/04/23 06:21:19;;;;;;;38.92;24.02;;;11.50;99.90;;;;;;5044642;28;20070;-66
2022/04/23 06:23:44;;;;;;;38.55;23.98;;;11.60;99.90;;;;;;5045649;28;20028;-66
2022/04/23 06:26:10;;;;;;;36.30;23.30;;;11.70;99.90;;;;;;5047202;28;20021;-66
2022/04/23 06:28:36;;;;;;;37.28;24.00;;;11.80;99.90;;;;;;5081052;28;20055;-65
2022/04/23 06:31:01;;;;;;;34.42;22.58;;;12.00;99.90;;;;;;5088962;28;20028;-65
2022/04/23 06:33:27;;;;;;;37.95;21.40;;;12.20;99.90;;;;;;5087085;28;20060;-66
2022/04/23 06:35:53;;;;;;;33.08;21.23;;;12.30;99.90;;;;;;5020684;28;20029;-66
2022/04/23 06:38:18;;;;;;;36.53;21.90;;;12.40;99.90;;;;;;5068222;28;20027;-68
2022/04/23 06:40:44;;;;;;;33.70;21.88;;;12.40;99.90;;;;;;5096233;28;20081;-65
2022/04/23 06:43:10;;;;;;;34.25;20.75;;;12.40;99.90;;;;;;5096772;28;20107;-65
2022/04/23 06:45:35;;;;;;;33.55;21.98;;;12.40;99.90;;;;;;5076280;28;20043;-67
2022/04/23 06:48:04;;;;;;;35.33;21.17;;;12.30;99.90;;;;;;5083361;28;20024;-66
2022/04/23 06:50:33;;;;;;;34.10;22.60;;;12.30;99.90;;;;;;5072373;28;20104;-65
2022/04/23 06:53:03;;;;;;;36.10;22.42;;;12.30;99.90;;;;;;5056735;28;20033;-66
2022/04/23 06:55:30;;;;;;;34.80;21.33;;;12.30;99.90;;;;;;5056774;28;20028;-66
2022/04/23 06:57:56;;;;;;;38.67;22.27;;;12.30;99.90;;;;;;5067838;28;20016;-65
2022/04/23 07:00:22;;;;;;;32.28;21.55;;;12.40;99.90;;;;;;5065230;28;20036;-66
2022/04/23 07:02:50;;;;;;;36.13;22.00;;;12.40;99.90;;;;;;5073727;28;20468;-65
2022/04/23 07:05:17;;;;;;;36.33;22.58;;;12.50;99.90;;;;;;5063909;28;20033;-65
2022/04/23 07:08:00;;;;;;;40.28;21.05;;;12.60;99.90;;;;;;5060312;28;20024;-65
2022/04/23 07:10:28;;;;;;;34.13;20.90;;;12.80;99.90;;;;;;5093875;28;20080;-66
2022/04/23 07:12:54;;;;;;;37.75;21.80;;;12.90;99.90;;;;;;5065699;28;20392;-65
2022/04/23 07:15:21;;;;;;;36.33;20.48;;;13.00;99.90;;;;;;5056754;28;20025;-65
2022/04/23 07:17:47;;;;;;;36.22;21.73;;;13.10;99.90;;;;;;5065949;28;20020;-66
2022/04/23 07:20:14;;;;;;;35.03;20.90;;;13.10;99.90;;;;;;5079931;28;20029;-65
2022/04/23 07:22:39;;;;;;;33.03;21.65;;;13.10;99.90;;;;;;5056785;28;20102;-65
2022/04/23 07:25:09;;;;;;;33.65;21.73;;;13.00;99.90;;;;;;5057023;28;20475;-64
2022/04/23 07:27:35;;;;;;;33.45;21.83;;;12.90;99.90;;;;;;5043510;28;20427;-65
2022/04/23 07:30:01;;;;;;;31.27;21.05;;;12.80;99.90;;;;;;5078951;28;20051;-65
2022/04/23 07:32:27;;;;;;;33.65;21.80;;;12.80;99.90;;;;;;5061330;28;20033;-66
2022/04/23 07:37:37;;;;;;;33.58;20.80;;;12.80;99.90;;;;;;5061525;28;20538;-64
2022/04/23 07:40:10;;;;;;;31.70;21.33;;;12.80;99.90;;;;;;5096712;28;20032;-66
2022/04/23 07:42:37;;;;;;;34.70;22.90;;;12.80;99.90;;;;;;5062121;28;20045;-66
2022/04/23 07:45:04;;;;;;;33.47;21.08;;;12.90;99.90;;;;;;5056445;28;20025;-64
2022/04/23 07:47:29;;;;;;;35.72;22.52;;;12.90;99.90;;;;;;5059161;28;20037;-65
2022/04/23 07:49:55;;;;;;;34.65;21.88;;;13.00;99.90;;;;;;5087741;28;20024;-64
2022/04/23 07:52:21;;;;;;;34.13;21.73;;;13.10;99.90;;;;;;5061667;28;20472;-65
2022/04/23 07:54:47;;;;;;;33.60;21.85;;;13.20;99.90;;;;;;5072771;28;20051;-65
2022/04/23 07:57:13;;;;;;;31.23;20.67;;;13.20;99.90;;;;;;5073311;28;20460;-65
2022/04/23 07:59:41;;;;;;;34.92;21.08;;;13.30;99.90;;;;;;5054151;28;20047;-64
2022/04/23 08:02:08;;;;;;;30.67;20.60;;;13.30;99.90;;;;;;5069285;28;20020;-65
2022/04/23 08:04:34;;;;;;;32.15;20.80;;;13.30;99.90;;;;;;5072376;28;20032;-65
2022/04/23 08:07:00;;;;;;;33.22;20.27;;;13.40;99.90;;;;;;5053241;28;20136;-65
2022/04/23 08:09:25;;;;;;;34.50;21.13;;;13.40;99.90;;;;;;5075923;28;20038;-65
2022/04/23 08:11:51;;;;;;;34.65;21.73;;;13.50;99.90;;;;;;5072753;28;20052;-64
2022/04/23 08:14:17;;;;;;;31.05;20.38;;;13.60;99.90;;;;;;5054614;28;20043;-65
2022/04/23 08:16:42;;;;;;;30.98;20.83;;;13.60;99.90;;;;;;5072697;28;20570;-65
2022/04/23 08:19:11;;;;;;;31.40;20.23;;;13.70;99.90;;;;;;5086966;28;20024;-65
2022/04/23 08:21:37;;;;;;;34.63;21.48;;;13.80;99.90;;;;;;5041032;28;20036;-65
2022/04/23 08:24:03;;;;;;;32.38;20.15;;;13.80;99.90;;;;;;5052294;28;20479;-64
2022/04/23 08:26:29;;;;;;;30.60;19.58;;;13.90;99.90;;;;;;5063504;28;20055;-65
2022/04/23 08:31:39;;;;;;;27.40;19.27;;;14.10;99.90;;;;;;5063371;28;20032;-65
2022/04/23 08:34:04;;;;;;;31.05;21.00;;;14.10;99.90;;;;;;5072208;28;20032;-65
2022/04/23 08:36:35;;;;;;;35.17;20.08;;;14.20;99.90;;;;;;5057728;28;20071;-65
2022/04/23 08:39:05;;;;;;;30.63;20.83;;;14.30;99.90;;;;;;5078736;28;20327;-65
2022/04/23 08:41:31;;;;;;;26.50;19.17;;;14.40;99.90;;;;;;5074080;28;20403;-65
2022/04/23 08:44:08;;;;;;;29.80;20.15;;;14.50;99.90;;;;;;5077097;28;20028;-65
2022/04/23 08:46:36;;;;;;;29.23;19.05;;;14.50;99.90;;;;;;5071901;28;20020;-65
2022/04/23 08:49:16;;;;;;;27.98;18.77;;;14.70;99.90;;;;;;5085108;28;20096;-65
2022/04/23 08:51:46;;;;;;;29.42;18.23;;;14.70;99.90;;;;;;5060486;28;20032;-65
2022/04/23 08:54:14;;;;;;;28.80;18.83;;;14.70;99.90;;;;;;5051916;28;20044;-65
2022/04/23 08:56:42;;;;;;;32.17;19.95;;;14.80;99.90;;;;;;5052307;28;20488;-65
2022/04/23 08:59:10;;;;;;;28.65;19.95;;;15.00;99.90;;;;;;5080010;28;20020;-65
2022/04/23 09:01:38;;;;;;;28.33;19.48;;;15.00;99.90;;;;;;5058903;28;20043;-65
2022/04/23 09:04:05;;;;;;;23.23;17.95;;;15.00;99.90;;;;;;5051698;28;20036;-65
2022/04/23 09:06:40;;;;;;;26.98;19.20;;;15.10;99.90;;;;;;5052349;28;20028;-64
2022/04/23 09:09:25;;;;;;;31.70;18.80;;;15.10;99.90;;;;;;5079100;28;20030;-65
2022/04/23 09:11:58;;;;;;;24.33;17.52;;;15.10;99.90;;;;;;5073608;28;20020;-65
2022/04/23 09:14:33;;;;;;;25.10;18.50;;;15.20;99.90;;;;;;5092001;28;20595;-65
2022/04/23 09:25:35;;;;;;;26.35;18.85;;;15.50;99.90;;;;;;5062688;28;20043;-65
2022/04/23 09:28:16;;;;;;;26.20;18.50;;;15.50;99.90;;;;;;5063895;28;20438;-64
2022/04/23 09:30:42;;;;;;;23.45;16.77;;;15.60;99.90;;;;;;5052056;28;20016;-65
2022/04/23 09:33:08;;;;;;;26.35;16.73;;;15.60;99.90;;;;;;5070237;28;20020;-64
2022/04/23 09:35:34;;;;;;;26.92;17.42;;;15.70;99.90;;;;;;5065067;28;20518;-64
2022/04/23 09:38:18;;;;;;;29.10;18.13;;;15.70;99.90;;;;;;5059236;28;20016;-64
2022/04/23 09:40:50;;;;;;;26.00;17.52;;;15.80;99.90;;;;;;5090873;28;20035;-64
2022/04/23 09:43:15;;;;;;;;;;;15.90;99.90;;;;;;5071558;28;20503;-64
2022/04/23 09:45:42;;;;;;;24.15;17.15;;;16.00;99.90;;;;;;5070516;28;19908;-64
2022/04/23 09:48:14;;;;;;;25.77;16.90;;;16.10;99.90;;;;;;5067192;28;20020;-64
2022/04/23 09:50:42;;;;;;;24.00;16.65;;;16.00;99.90;;;;;;5069020;28;20615;-65
2022/04/23 09:53:08;;;;;;;23.70;17.15;;;16.00;99.90;;;;;;5070289;28;20512;-64
2022/04/23 09:55:35;;;;;;;24.50;17.80;;;16.00;99.90;;;;;;5070198;28;20020;-64
2022/04/23 09:58:02;;;;;;;24.70;17.50;;;16.00;99.90;;;;;;5056467;28;20103;-65
2022/04/23 10:00:29;;;;;;;24.08;16.58;;;16.00;99.90;;;;;;5088298;28;20024;-65
2022/04/23 10:02:58;;;;;;;23.52;17.52;;;16.00;99.90;;;;;;5056669;28;20404;-65
2022/04/23 10:05:25;;;;;;;25.00;17.75;;;16.00;99.90;;;;;;5047361;28;20099;-65
2022/04/23 10:07:56;;;;;;;25.30;17.50;;;16.20;99.90;;;;;;5058586;28;20047;-64
2022/04/23 10:10:26;;;;;;;23.17;16.67;;;16.30;99.90;;;;;;5090625;28;20055;-65
2022/04/23 10:12:55;;;;;;;24.25;17.05;;;16.50;99.90;;;;;;5072491;28;20027;-64
2022/04/23 10:15:21;;;;;;;25.60;16.40;;;16.60;99.90;;;;;;5071834;28;20429;-64
2022/04/23 10:17:48;;;;;;;27.85;17.52;;;16.60;99.50;;;;;;5075765;28;20031;-64
2022/04/23 10:20:14;;;;;;;23.92;16.83;;;16.70;99.50;;;;;;5090307;28;20387;-64
2022/04/23 10:23:12;;;;;;;25.75;16.30;;;16.80;99.50;;;;;;5090555;28;20040;-64
2022/04/23 10:25:59;;;;;;;20.95;15.68;;;16.90;98.90;;;;;;5046219;28;20032;-64
2022/04/23 10:28:25;;;;;;;21.73;15.70;;;16.90;98.30;;;;;;5076991;28;20102;-65
2022/04/23 10:31:12;;;;;;;24.50;15.57;;;16.90;97.20;;;;;;5090747;28;20092;-65
2022/04/23 10:33:44;;;;;;;22.63;15.05;;;17.00;98.30;;;;;;5059822;28;20039;-64
2022/04/23 10:36:10;;;;;;;19.80;14.95;;;17.10;98.60;;;;;;5050490;28;20017;-64
2022/04/23 10:38:38;;;;;;;21.83;16.67;;;17.20;97.60;;;;;;5066701;28;20035;-64
2022/04/23 10:41:05;;;;;;;25.23;16.90;;;17.30;97.40;;;;;;5090085;28;20043;-64
2022/04/23 10:43:31;;;;;;;20.52;15.25;;;17.30;97.10;;;;;;5070215;28;20035;-65
2022/04/23 10:45:59;;;;;;;22.48;16.48;;;17.50;97.50;;;;;;5070320;28;20024;-66
2022/04/23 10:48:29;;;;;;;22.70;16.05;;;17.60;96.60;;;;;;5071083;28;20085;-64
2022/04/23 10:50:59;;;;;;;21.73;16.05;;;17.70;96.60;;;;;;5090743;28;20021;-64
2022/04/23 10:53:49;;;;;;;21.58;15.80;;;17.80;96.50;;;;;;5072258;28;20040;-64
2022/04/23 10:56:19;;;;;;;19.13;15.38;;;18.00;95.70;;;;;;5062485;28;20115;-64
2022/04/23 10:58:46;;;;;;;21.55;15.27;;;18.10;95.40;;;;;;5084903;28;20100;-64
2022/04/23 11:01:21;;;;;;;21.40;14.73;;;18.20;94.60;;;;;;5069759;28;20095;-64
2022/04/23 11:03:57;;;;;;;19.83;15.05;;;18.20;92.00;;;;;;5055558;28;20033;-64
2022/04/23 11:12:27;;;;;;;21.33;15.45;;;18.30;92.20;;;;;;5007683;28;20508;-64
2022/04/23 11:14:55;;;;;;;21.02;15.07;;;18.40;91.70;;;;;;4991209;28;20124;-64
2022/04/23 11:17:45;;;;;;;20.27;14.85;;;18.40;91.00;;;;;;5025291;28;20369;-64
2022/04/23 11:20:11;;;;;;;17.77;13.85;;;18.70;91.20;;;;;;5042064;28;20044;-64
2022/04/23 11:22:37;;;;;;;19.10;14.25;;;18.90;92.00;;;;;;5049860;28;20025;-64
2022/04/23 11:25:04;;;;;;;17.42;14.27;;;19.10;88.20;;;;;;5050131;28;20032;-64
2022/04/23 11:27:36;;;;;;;23.65;15.13;;;19.00;88.70;;;;;;5053810;28;20355;-64
2022/04/23 11:30:04;;;;;;;22.63;16.25;;;19.00;90.00;;;;;;5092804;28;20175;-64
2022/04/23 11:32:31;;;;;;;25.35;15.68;;;19.20;90.00;;;;;;5088805;28;20024;-65
2022/04/23 11:34:58;;;;;;;27.23;18.20;;;19.40;90.40;;;;;;5053587;28;20056;-64
2022/04/23 11:37:32;;;;;;;22.10;17.25;;;19.40;91.70;;;;;;5053742;28;20023;-65
2022/04/23 11:40:16;;;;;;;19.92;16.23;;;19.50;92.00;;;;;;5073169;28;20491;-64
2022/04/23 11:42:47;;;;;;;30.58;18.45;;;19.80;90.90;;;;;;5080343;28;20044;-64
2022/04/23 11:45:14;;;;;;;23.60;17.20;;;19.90;90.00;;;;;;5073143;28;20031;-64
2022/04/23 11:47:40;;;;;;;29.45;18.65;;;19.70;89.90;;;;;;5068778;28;20021;-64
2022/04/23 11:50:32;;;;;;;25.27;18.73;;;19.80;90.80;;;;;;5061102;28;20064;-65
2022/04/23 11:53:05;;;;;;;26.00;19.20;;;19.90;90.00;;;;;;5050122;28;20103;-64
2022/04/23 11:55:31;;;;;;;26.45;18.35;;;20.10;90.10;;;;;;5053086;28;20056;-65
2022/04/23 11:58:06;;;;;;;28.25;17.73;;;20.20;88.20;;;;;;5056779;28;20028;-64
2022/04/23 12:00:33;;;;;;;27.38;17.83;;;20.60;88.10;;;;;;5093312;28;20039;-65
2022/04/23 12:03:00;;;;;;;24.90;18.65;;;20.90;82.90;;;;;;5068434;28;20115;-65
2022/04/23 12:05:28;;;;;;;25.23;19.05;;;21.30;83.60;;;;;;5053353;28;20021;-65
2022/04/23 12:07:54;;;;;;;29.83;19.50;;;21.40;81.20;;;;;;5068329;28;20032;-65
2022/04/23 12:10:28;;;;;;;27.38;19.60;;;21.50;79.80;;;;;;5074547;28;20408;-65
2022/04/23 12:13:06;;;;;;;26.52;18.90;;;21.80;80.30;;;;;;5092841;28;20035;-65
2022/04/23 12:15:32;;;;;;;24.90;19.60;;;21.70;76.20;;;;;;5092777;28;20071;-65
2022/04/23 12:17:58;;;;;;;25.58;19.77;;;20.70;77.30;;;;;;5090259;28;20028;-65
2022/04/23 12:20:26;;;;;;;28.63;20.10;;;20.60;81.60;;;;;;5068520;28;20036;-65
2022/04/23 12:22:56;;;;;;;23.90;18.70;;;21.00;80.70;;;;;;5062662;28;20017;-65
2022/04/23 12:25:25;;;;;;;30.25;21.23;;;21.50;78.30;;;;;;5068376;28;20394;-64
2022/04/23 12:42:10;;;;;;;26.33;19.80;;;22.30;70.60;;;;;;5075690;28;20079;-65
2022/04/23 12:44:41;;;;;;;27.65;21.83;;;22.40;68.10;;;;;;5058136;28;20036;-65
2022/04/23 12:47:09;;;;;;;26.13;19.63;;;22.40;65.70;;;;;;5053423;28;20021;-65
2022/04/23 12:49:48;;;;;;;27.27;20.65;;;22.50;65.30;;;;;;5053432;28;20025;-64
2022/04/23 12:52:25;;;;;;;25.63;19.80;;;22.70;65.30;;;;;;5052529;28;20032;-64
2022/04/23 12:55:13;;;;;;;22.65;18.52;;;22.80;64.00;;;;;;5052168;28;20121;-64
2022/04/23 12:57:44;;;;;;;27.17;19.30;;;23.10;65.40;;;;;;5055644;28;20066;-65
2022/04/23 13:00:18;;;;;;;24.87;19.50;;;23.70;63.70;;;;;;5062095;28;20555;-64
2022/04/23 13:02:52;;;;;;;25.05;19.98;;;23.80;59.80;;;;;;5034217;28;20354;-66
2022/04/23 13:05:18;;;;;;;30.08;21.42;;;23.80;60.60;;;;;;5051926;28;20083;-64
2022/04/23 13:10:28;;;;;;;28.23;20.98;;;23.40;58.50;;;;;;5052487;28;20051;-65
2022/04/23 13:12:54;;;;;;;23.27;20.48;;;23.20;58.90;;;;;;5051707;28;20121;-64
2022/04/23 13:15:20;;;;;;;26.15;19.83;;;23.30;59.10;;;;;;5061368;28;20469;-65